sensor_id;sensor_type;location;lat;lon;timestamp;temperature;humidity
44427;DHT22;30133;47.866;-4.222;2024-02-14T00:01:08;16.50;70.20
44427;DHT22;30133;47.866;-4.222;2024-02-14T00:03:35;16.50;70.20
44427;DHT22;30133;47.866;-4.222;2024-02-14T00:06:04;16.50;70.20
44427;DHT22;30133;47.866;-4.222;2024-02-14T00:08:31;16.50;70.20
44427;DHT22;30133;47.866;-4.222;2024-02-14T00:10:57;16.50;70.20
44427;DHT22;30133;47.866;-4.222;2024-02-14T00:13:23;16.50;70.20
44427;DHT22;30133;47.866;-4.222;2024-02-14T00:15:48;16.50;70.20
44427;DHT22;30133;47.866;-4.222;2024-02-14T00:18:15;16.50;70.30
44427;DHT22;30133;47.866;-4.222;2024-02-14T00:20:41;16.50;70.30
44427;DHT22;30133;47.866;-4.222;2024-02-14T00:23:07;16.50;70.30
44427;DHT22;30133;47.866;-4.222;2024-02-14T00:25:32;16.50;70.30
44427;DHT22;30133;47.866;-4.222;2024-02-14T00:27:58;16.50;70.30
44427;DHT22;30133;47.866;-4.222;2024-02-14T00:30:26;16.50;70.30
44427;DHT22;30133;47.866;-4.222;2024-02-14T00:32:52;16.50;70.30
44427;DHT22;30133;47.866;-4.222;2024-02-14T00:35:18;16.50;70.30
44427;DHT22;30133;47.866;-4.222;2024-02-14T00:37:44;16.50;70.30
44427;DHT22;30133;47.866;-4.222;2024-02-14T00:40:10;16.50;70.30
44427;DHT22;30133;47.866;-4.222;2024-02-14T00:42:37;16.50;70.30
44427;DHT22;30133;47.866;-4.222;2024-02-14T00:45:03;16.50;70.30
44427;DHT22;30133;47.866;-4.222;2024-02-14T00:47:29;16.50;70.40
44427;DHT22;30133;47.866;-4.222;2024-02-14T00:49:55;16.50;70.40
44427;DHT22;30133;47.866;-4.222;2024-02-14T00:52:20;16.50;70.30
44427;DHT22;30133;47.866;-4.222;2024-02-14T00:54:47;16.50;70.40
44427;DHT22;30133;47.866;-4.222;2024-02-14T01:00:16;16.60;70.30
44427;DHT22;30133;47.866;-4.222;2024-02-14T01:02:43;16.60;70.30
44427;DHT22;30133;47.866;-4.222;2024-02-14T01:05:09;16.50;70.30
44427;DHT22;30133;47.866;-4.222;2024-02-14T01:07:35;16.50;70.40
44427;DHT22;30133;47.866;-4.222;2024-02-14T01:10:01;16.60;70.40
44427;DHT22;30133;47.866;-4.222;2024-02-14T01:12:27;16.50;70.40
44427;DHT22;30133;47.866;-4.222;2024-02-14T01:14:55;16.60;70.40
44427;DHT22;30133;47.866;-4.222;2024-02-14T01:17:21;16.60;70.40
44427;DHT22;30133;47.866;-4.222;2024-02-14T01:19:47;16.50;70.30
44427;DHT22;30133;47.866;-4.222;2024-02-14T01:22:13;16.60;70.40
44427;DHT22;30133;47.866;-4.222;2024-02-14T01:24:42;16.60;70.30
44427;DHT22;30133;47.866;-4.222;2024-02-14T01:27:09;16.60;70.30
44427;DHT22;30133;47.866;-4.222;2024-02-14T01:29:35;16.60;70.30
44427;DHT22;30133;47.866;-4.222;2024-02-14T01:32:00;16.60;70.30
44427;DHT22;30133;47.866;-4.222;2024-02-14T01:34:26;16.60;70.40
44427;DHT22;30133;47.866;-4.222;2024-02-14T01:37:00;16.60;70.40
44427;DHT22;30133;47.866;-4.222;2024-02-14T01:39:26;16.50;70.40
44427;DHT22;30133;47.866;-4.222;2024-02-14T01:41:52;16.50;70.40
44427;DHT22;30133;47.866;-4.222;2024-02-14T01:44:18;16.50;70.40
44427;DHT22;30133;47.866;-4.222;2024-02-14T01:46:44;16.60;70.40
44427;DHT22;30133;47.866;-4.222;2024-02-14T01:49:11;16.60;70.40
44427;DHT22;30133;47.866;-4.222;2024-02-14T01:51:42;16.50;70.50
44427;DHT22;30133;47.866;-4.222;2024-02-14T01:54:12;16.50;70.50
44427;DHT22;30133;47.866;-4.222;2024-02-14T01:56:39;16.60;70.50
44427;DHT22;30133;47.866;-4.222;2024-02-14T01:59:05;16.50;70.50
44427;DHT22;30133;47.866;-4.222;2024-02-14T02:01:35;16.50;70.50
44427;DHT22;30133;47.866;-4.222;2024-02-14T02:04:01;16.50;70.60
44427;DHT22;30133;47.866;-4.222;2024-02-14T02:06:27;16.50;70.50
44427;DHT22;30133;47.866;-4.222;2024-02-14T02:08:54;16.50;70.60
44427;DHT22;30133;47.866;-4.222;2024-02-14T02:11:20;16.50;70.60
44427;DHT22;30133;47.866;-4.222;2024-02-14T02:13:45;16.50;70.60
44427;DHT22;30133;47.866;-4.222;2024-02-14T02:16:11;16.50;70.60
44427;DHT22;30133;47.866;-4.222;2024-02-14T02:18:38;16.50;70.60
44427;DHT22;30133;47.866;-4.222;2024-02-14T02:21:04;16.50;70.60
44427;DHT22;30133;47.866;-4.222;2024-02-14T02:23:33;16.50;70.70
44427;DHT22;30133;47.866;-4.222;2024-02-14T02:25:59;16.50;70.70
44427;DHT22;30133;47.866;-4.222;2024-02-14T02:28:25;16.60;70.70
44427;DHT22;30133;47.866;-4.222;2024-02-14T02:30:51;16.50;70.70
44427;DHT22;30133;47.866;-4.222;2024-02-14T02:33:19;16.60;70.70
44427;DHT22;30133;47.866;-4.222;2024-02-14T02:35:44;16.50;70.70
44427;DHT22;30133;47.866;-4.222;2024-02-14T02:38:11;16.60;70.70
44427;DHT22;30133;47.866;-4.222;2024-02-14T02:40:37;16.50;70.70
44427;DHT22;30133;47.866;-4.222;2024-02-14T02:43:09;16.60;70.60
44427;DHT22;30133;47.866;-4.222;2024-02-14T02:45:36;16.50;70.70
44427;DHT22;30133;47.866;-4.222;2024-02-14T02:48:02;16.60;70.70
44427;DHT22;30133;47.866;-4.222;2024-02-14T02:50:30;16.60;70.70
44427;DHT22;30133;47.866;-4.222;2024-02-14T02:52:56;16.60;70.70
44427;DHT22;30133;47.866;-4.222;2024-02-14T02:55:22;16.60;70.70
44427;DHT22;30133;47.866;-4.222;2024-02-14T02:57:48;16.50;70.70
44427;DHT22;30133;47.866;-4.222;2024-02-14T03:00:15;16.60;70.70
44427;DHT22;30133;47.866;-4.222;2024-02-14T03:02:41;16.50;70.70
44427;DHT22;30133;47.866;-4.222;2024-02-14T03:05:10;16.50;70.80
44427;DHT22;30133;47.866;-4.222;2024-02-14T03:07:46;16.50;70.80
44427;DHT22;30133;47.866;-4.222;2024-02-14T03:10:14;16.50;70.80
44427;DHT22;30133;47.866;-4.222;2024-02-14T03:12:45;16.50;70.80
44427;DHT22;30133;47.866;-4.222;2024-02-14T03:15:13;16.60;70.80
44427;DHT22;30133;47.866;-4.222;2024-02-14T03:17:39;16.50;70.80
44427;DHT22;30133;47.866;-4.222;2024-02-14T03:20:05;16.60;70.80
44427;DHT22;30133;47.866;-4.222;2024-02-14T03:22:43;16.60;70.80
44427;DHT22;30133;47.866;-4.222;2024-02-14T03:25:21;16.60;70.80
44427;DHT22;30133;47.866;-4.222;2024-02-14T03:27:49;16.60;70.80
44427;DHT22;30133;47.866;-4.222;2024-02-14T03:30:18;16.60;70.80
44427;DHT22;30133;47.866;-4.222;2024-02-14T03:32:44;16.50;70.80
44427;DHT22;30133;47.866;-4.222;2024-02-14T03:35:11;16.60;70.80
44427;DHT22;30133;47.866;-4.222;2024-02-14T03:37:40;16.60;70.80
44427;DHT22;30133;47.866;-4.222;2024-02-14T03:40:08;16.60;70.80
44427;DHT22;30133;47.866;-4.222;2024-02-14T03:42:37;16.60;70.80
44427;DHT22;30133;47.866;-4.222;2024-02-14T03:45:09;16.60;70.80
44427;DHT22;30133;47.866;-4.222;2024-02-14T03:47:35;16.60;70.80
44427;DHT22;30133;47.866;-4.222;2024-02-14T03:50:05;16.60;70.80
44427;DHT22;30133;47.866;-4.222;2024-02-14T03:52:32;16.60;70.80
44427;DHT22;30133;47.866;-4.222;2024-02-14T03:55:00;16.60;70.80
44427;DHT22;30133;47.866;-4.222;2024-02-14T03:57:26;16.60;70.80
44427;DHT22;30133;47.866;-4.222;2024-02-14T03:59:55;16.60;70.80
44427;DHT22;30133;47.866;-4.222;2024-02-14T04:02:22;16.60;70.70
44427;DHT22;30133;47.866;-4.222;2024-02-14T04:04:49;16.60;70.80
44427;DHT22;30133;47.866;-4.222;2024-02-14T04:07:15;16.60;70.70
44427;DHT22;30133;47.866;-4.222;2024-02-14T04:09:41;16.60;70.80
44427;DHT22;30133;47.866;-4.222;2024-02-14T04:12:07;16.60;70.70
44427;DHT22;30133;47.866;-4.222;2024-02-14T04:14:34;16.60;70.80
44427;DHT22;30133;47.866;-4.222;2024-02-14T04:16:59;16.60;70.80
44427;DHT22;30133;47.866;-4.222;2024-02-14T04:19:25;16.60;70.70
44427;DHT22;30133;47.866;-4.222;2024-02-14T04:21:51;16.60;70.70
44427;DHT22;30133;47.866;-4.222;2024-02-14T04:24:17;16.70;70.80
44427;DHT22;30133;47.866;-4.222;2024-02-14T04:26:43;16.60;70.70
44427;DHT22;30133;47.866;-4.222;2024-02-14T04:29:09;16.60;70.80
44427;DHT22;30133;47.866;-4.222;2024-02-14T04:31:34;16.60;70.70
44427;DHT22;30133;47.866;-4.222;2024-02-14T04:34:00;16.70;70.80
44427;DHT22;30133;47.866;-4.222;2024-02-14T04:36:26;16.70;70.70
44427;DHT22;30133;47.866;-4.222;2024-02-14T04:38:52;16.60;70.70
44427;DHT22;30133;47.866;-4.222;2024-02-14T04:41:19;16.60;70.70
44427;DHT22;30133;47.866;-4.222;2024-02-14T04:43:45;16.60;70.70
44427;DHT22;30133;47.866;-4.222;2024-02-14T04:46:10;16.60;70.70
44427;DHT22;30133;47.866;-4.222;2024-02-14T04:48:36;16.60;70.70
44427;DHT22;30133;47.866;-4.222;2024-02-14T04:51:03;16.60;70.70
44427;DHT22;30133;47.866;-4.222;2024-02-14T04:53:30;16.60;70.70
44427;DHT22;30133;47.866;-4.222;2024-02-14T04:55:56;16.70;70.80
44427;DHT22;30133;47.866;-4.222;2024-02-14T04:58:23;16.60;70.80
44427;DHT22;30133;47.866;-4.222;2024-02-14T05:00:48;16.60;70.80
44427;DHT22;30133;47.866;-4.222;2024-02-14T05:03:14;16.60;70.80
44427;DHT22;30133;47.866;-4.222;2024-02-14T05:05:41;16.60;70.90
44427;DHT22;30133;47.866;-4.222;2024-02-14T05:08:07;16.60;70.90
44427;DHT22;30133;47.866;-4.222;2024-02-14T05:10:33;16.60;70.90
44427;DHT22;30133;47.866;-4.222;2024-02-14T05:12:59;16.60;70.90
44427;DHT22;30133;47.866;-4.222;2024-02-14T05:15:26;16.60;70.90
44427;DHT22;30133;47.866;-4.222;2024-02-14T05:17:52;16.60;71.00
44427;DHT22;30133;47.866;-4.222;2024-02-14T05:20:18;16.60;70.90
44427;DHT22;30133;47.866;-4.222;2024-02-14T05:22:44;16.60;70.90
44427;DHT22;30133;47.866;-4.222;2024-02-14T05:25:11;16.60;71.00
44427;DHT22;30133;47.866;-4.222;2024-02-14T05:27:37;16.60;70.90
44427;DHT22;30133;47.866;-4.222;2024-02-14T05:30:03;16.60;70.90
44427;DHT22;30133;47.866;-4.222;2024-02-14T05:32:31;16.60;70.90
44427;DHT22;30133;47.866;-4.222;2024-02-14T05:34:58;16.60;70.90
44427;DHT22;30133;47.866;-4.222;2024-02-14T05:37:24;16.70;70.90
44427;DHT22;30133;47.866;-4.222;2024-02-14T05:39:50;16.60;70.90
44427;DHT22;30133;47.866;-4.222;2024-02-14T05:42:16;16.60;70.80
44427;DHT22;30133;47.866;-4.222;2024-02-14T05:44:42;16.70;70.90
44427;DHT22;30133;47.866;-4.222;2024-02-14T05:47:09;16.70;70.90
44427;DHT22;30133;47.866;-4.222;2024-02-14T05:49:35;16.70;70.90
44427;DHT22;30133;47.866;-4.222;2024-02-14T05:52:01;16.60;70.90
44427;DHT22;30133;47.866;-4.222;2024-02-14T05:54:27;16.60;70.90
44427;DHT22;30133;47.866;-4.222;2024-02-14T05:56:53;16.60;70.90
44427;DHT22;30133;47.866;-4.222;2024-02-14T05:59:19;16.60;70.90
44427;DHT22;30133;47.866;-4.222;2024-02-14T06:01:45;16.60;70.90
44427;DHT22;30133;47.866;-4.222;2024-02-14T06:04:11;16.60;70.90
44427;DHT22;30133;47.866;-4.222;2024-02-14T06:06:36;16.60;70.90
44427;DHT22;30133;47.866;-4.222;2024-02-14T06:09:02;16.60;70.90
44427;DHT22;30133;47.866;-4.222;2024-02-14T06:11:35;16.60;70.90
44427;DHT22;30133;47.866;-4.222;2024-02-14T06:14:01;16.60;71.00
44427;DHT22;30133;47.866;-4.222;2024-02-14T06:16:27;16.60;70.90
44427;DHT22;30133;47.866;-4.222;2024-02-14T06:18:53;16.60;71.00
44427;DHT22;30133;47.866;-4.222;2024-02-14T06:21:19;16.60;71.00
44427;DHT22;30133;47.866;-4.222;2024-02-14T06:23:45;16.70;71.00
44427;DHT22;30133;47.866;-4.222;2024-02-14T06:26:12;16.60;71.00
44427;DHT22;30133;47.866;-4.222;2024-02-14T06:28:38;16.60;71.00
44427;DHT22;30133;47.866;-4.222;2024-02-14T06:31:04;16.60;71.00
44427;DHT22;30133;47.866;-4.222;2024-02-14T06:33:30;16.60;71.00
44427;DHT22;30133;47.866;-4.222;2024-02-14T06:35:55;16.70;71.00
44427;DHT22;30133;47.866;-4.222;2024-02-14T06:38:21;16.70;71.00
44427;DHT22;30133;47.866;-4.222;2024-02-14T06:40:47;16.70;71.00
44427;DHT22;30133;47.866;-4.222;2024-02-14T06:43:13;16.70;71.00
44427;DHT22;30133;47.866;-4.222;2024-02-14T06:45:39;16.70;71.00
44427;DHT22;30133;47.866;-4.222;2024-02-14T06:48:05;16.70;71.00
44427;DHT22;30133;47.866;-4.222;2024-02-14T06:50:31;16.70;70.90
44427;DHT22;30133;47.866;-4.222;2024-02-14T06:52:57;16.70;71.00
44427;DHT22;30133;47.866;-4.222;2024-02-14T06:55:25;16.70;71.00
44427;DHT22;30133;47.866;-4.222;2024-02-14T06:57:52;16.70;71.00
44427;DHT22;30133;47.866;-4.222;2024-02-14T07:00:18;16.60;71.00
44427;DHT22;30133;47.866;-4.222;2024-02-14T07:02:44;16.60;71.00
44427;DHT22;30133;47.866;-4.222;2024-02-14T07:05:12;16.70;71.00
44427;DHT22;30133;47.866;-4.222;2024-02-14T07:07:40;16.70;71.00
44427;DHT22;30133;47.866;-4.222;2024-02-14T07:10:07;16.70;71.00
44427;DHT22;30133;47.866;-4.222;2024-02-14T07:12:33;16.70;71.00
44427;DHT22;30133;47.866;-4.222;2024-02-14T07:14:58;16.70;71.00
44427;DHT22;30133;47.866;-4.222;2024-02-14T07:17:24;16.70;71.00
44427;DHT22;30133;47.866;-4.222;2024-02-14T07:19:50;16.70;71.00
44427;DHT22;30133;47.866;-4.222;2024-02-14T07:22:16;16.70;71.00
44427;DHT22;30133;47.866;-4.222;2024-02-14T07:24:44;16.70;71.00
44427;DHT22;30133;47.866;-4.222;2024-02-14T07:27:13;16.70;71.00
44427;DHT22;30133;47.866;-4.222;2024-02-14T07:29:39;16.60;71.00
44427;DHT22;30133;47.866;-4.222;2024-02-14T07:32:05;16.70;71.10
44427;DHT22;30133;47.866;-4.222;2024-02-14T07:34:34;16.70;71.10
44427;DHT22;30133;47.866;-4.222;2024-02-14T07:37:00;16.70;71.10
44427;DHT22;30133;47.866;-4.222;2024-02-14T07:39:25;16.60;71.10
44427;DHT22;30133;47.866;-4.222;2024-02-14T07:41:51;16.70;71.10
44427;DHT22;30133;47.866;-4.222;2024-02-14T07:44:17;16.70;71.10
44427;DHT22;30133;47.866;-4.222;2024-02-14T07:46:43;16.70;71.10
44427;DHT22;30133;47.866;-4.222;2024-02-14T07:49:09;16.70;71.10
44427;DHT22;30133;47.866;-4.222;2024-02-14T07:51:35;16.70;71.00
44427;DHT22;30133;47.866;-4.222;2024-02-14T07:54:07;16.70;71.00
44427;DHT22;30133;47.866;-4.222;2024-02-14T07:56:33;16.70;71.00
44427;DHT22;30133;47.866;-4.222;2024-02-14T07:58:59;16.70;71.00
44427;DHT22;30133;47.866;-4.222;2024-02-14T08:01:25;16.70;71.00
44427;DHT22;30133;47.866;-4.222;2024-02-14T08:03:51;16.70;70.90
44427;DHT22;30133;47.866;-4.222;2024-02-14T08:06:17;16.70;70.90
44427;DHT22;30133;47.866;-4.222;2024-02-14T08:08:43;16.70;70.90
44427;DHT22;30133;47.866;-4.222;2024-02-14T08:11:12;16.70;70.90
44427;DHT22;30133;47.866;-4.222;2024-02-14T08:13:37;16.70;70.90
44427;DHT22;30133;47.866;-4.222;2024-02-14T08:16:07;16.70;70.90
44427;DHT22;30133;47.866;-4.222;2024-02-14T08:18:33;16.70;70.90
44427;DHT22;30133;47.866;-4.222;2024-02-14T08:20:59;16.70;71.00
44427;DHT22;30133;47.866;-4.222;2024-02-14T08:23:25;16.70;70.90
44427;DHT22;30133;47.866;-4.222;2024-02-14T08:25:50;16.70;70.90
44427;DHT22;30133;47.866;-4.222;2024-02-14T08:28:16;16.70;70.90
44427;DHT22;30133;47.866;-4.222;2024-02-14T08:30:46;16.70;70.90
44427;DHT22;30133;47.866;-4.222;2024-02-14T08:33:13;16.70;70.90
44427;DHT22;30133;47.866;-4.222;2024-02-14T08:35:39;16.70;70.90
44427;DHT22;30133;47.866;-4.222;2024-02-14T08:38:05;16.70;70.90
44427;DHT22;30133;47.866;-4.222;2024-02-14T08:40:32;16.80;70.80
44427;DHT22;30133;47.866;-4.222;2024-02-14T08:42:58;16.70;70.80
44427;DHT22;30133;47.866;-4.222;2024-02-14T08:45:24;16.80;70.80
44427;DHT22;30133;47.866;-4.222;2024-02-14T08:47:51;16.80;70.80
44427;DHT22;30133;47.866;-4.222;2024-02-14T08:50:16;16.70;70.80
44427;DHT22;30133;47.866;-4.222;2024-02-14T08:52:42;16.80;70.80
44427;DHT22;30133;47.866;-4.222;2024-02-14T08:55:08;16.70;70.80
44427;DHT22;30133;47.866;-4.222;2024-02-14T08:57:40;16.80;70.80
44427;DHT22;30133;47.866;-4.222;2024-02-14T09:00:07;16.80;70.80
44427;DHT22;30133;47.866;-4.222;2024-02-14T09:02:33;16.80;70.80
44427;DHT22;30133;47.866;-4.222;2024-02-14T09:05:00;16.80;70.80
44427;DHT22;30133;47.866;-4.222;2024-02-14T09:07:27;16.80;70.80
44427;DHT22;30133;47.866;-4.222;2024-02-14T09:09:53;16.80;70.80
44427;DHT22;30133;47.866;-4.222;2024-02-14T09:12:19;16.80;70.80
44427;DHT22;30133;47.866;-4.222;2024-02-14T09:14:44;16.80;70.80
44427;DHT22;30133;47.866;-4.222;2024-02-14T09:17:10;16.80;70.80
44427;DHT22;30133;47.866;-4.222;2024-02-14T09:19:36;16.80;70.80
44427;DHT22;30133;47.866;-4.222;2024-02-14T09:22:03;16.80;70.80
44427;DHT22;30133;47.866;-4.222;2024-02-14T09:24:32;16.80;70.80
44427;DHT22;30133;47.866;-4.222;2024-02-14T09:26:58;16.80;70.80
44427;DHT22;30133;47.866;-4.222;2024-02-14T09:29:24;16.80;70.70
44427;DHT22;30133;47.866;-4.222;2024-02-14T09:31:53;16.80;70.70
44427;DHT22;30133;47.866;-4.222;2024-02-14T09:34:19;16.80;70.70
44427;DHT22;30133;47.866;-4.222;2024-02-14T09:36:48;16.80;70.70
44427;DHT22;30133;47.866;-4.222;2024-02-14T09:39:19;16.90;70.70
44427;DHT22;30133;47.866;-4.222;2024-02-14T09:41:54;16.90;70.70
44427;DHT22;30133;47.866;-4.222;2024-02-14T09:44:27;16.90;70.90
44427;DHT22;30133;47.866;-4.222;2024-02-14T09:46:55;17.00;72.00
44427;DHT22;30133;47.866;-4.222;2024-02-14T09:49:22;17.00;71.10
44427;DHT22;30133;47.866;-4.222;2024-02-14T09:51:48;17.00;71.10
44427;DHT22;30133;47.866;-4.222;2024-02-14T09:54:16;17.00;71.30
44427;DHT22;30133;47.866;-4.222;2024-02-14T09:56:49;16.90;71.40
44427;DHT22;30133;47.866;-4.222;2024-02-14T09:59:19;16.90;71.50
44427;DHT22;30133;47.866;-4.222;2024-02-14T10:01:47;17.00;71.60
44427;DHT22;30133;47.866;-4.222;2024-02-14T10:04:15;16.90;71.70
44427;DHT22;30133;47.866;-4.222;2024-02-14T10:06:40;17.00;71.80
44427;DHT22;30133;47.866;-4.222;2024-02-14T10:09:07;17.00;71.90
44427;DHT22;30133;47.866;-4.222;2024-02-14T10:11:36;17.00;71.80
44427;DHT22;30133;47.866;-4.222;2024-02-14T10:14:04;17.00;71.80
44427;DHT22;30133;47.866;-4.222;2024-02-14T10:16:35;17.00;71.80
44427;DHT22;30133;47.866;-4.222;2024-02-14T10:19:01;17.00;71.70
44427;DHT22;30133;47.866;-4.222;2024-02-14T10:21:29;17.00;71.70
44427;DHT22;30133;47.866;-4.222;2024-02-14T10:24:01;17.00;71.70
44427;DHT22;30133;47.866;-4.222;2024-02-14T10:26:28;17.10;71.80
44427;DHT22;30133;47.866;-4.222;2024-02-14T10:28:56;17.10;71.80
44427;DHT22;30133;47.866;-4.222;2024-02-14T10:31:26;17.10;71.80
44427;DHT22;30133;47.866;-4.222;2024-02-14T10:33:55;17.10;71.80
44427;DHT22;30133;47.866;-4.222;2024-02-14T10:36:24;17.10;72.00
44427;DHT22;30133;47.866;-4.222;2024-02-14T10:38:50;17.00;72.00
44427;DHT22;30133;47.866;-4.222;2024-02-14T10:41:17;17.00;72.10
44427;DHT22;30133;47.866;-4.222;2024-02-14T10:43:43;16.90;72.20
44427;DHT22;30133;47.866;-4.222;2024-02-14T10:46:19;16.90;72.20
44427;DHT22;30133;47.866;-4.222;2024-02-14T10:48:47;16.90;72.20
44427;DHT22;30133;47.866;-4.222;2024-02-14T10:51:15;16.90;72.20
44427;DHT22;30133;47.866;-4.222;2024-02-14T10:53:44;16.90;72.30
44427;DHT22;30133;47.866;-4.222;2024-02-14T10:56:14;16.90;72.30
44427;DHT22;30133;47.866;-4.222;2024-02-14T10:58:47;16.90;72.20
44427;DHT22;30133;47.866;-4.222;2024-02-14T11:01:14;16.90;72.20
44427;DHT22;30133;47.866;-4.222;2024-02-14T11:03:45;17.00;72.10
44427;DHT22;30133;47.866;-4.222;2024-02-14T11:06:16;16.90;72.00
44427;DHT22;30133;47.866;-4.222;2024-02-14T11:11:22;17.00;72.00
44427;DHT22;30133;47.866;-4.222;2024-02-14T11:13:53;17.00;72.10
44427;DHT22;30133;47.866;-4.222;2024-02-14T11:16:26;17.00;72.10
44427;DHT22;30133;47.866;-4.222;2024-02-14T11:19:14;17.00;72.10
44427;DHT22;30133;47.866;-4.222;2024-02-14T11:21:47;17.00;72.20
44427;DHT22;30133;47.866;-4.222;2024-02-14T11:24:15;17.00;72.20
44427;DHT22;30133;47.866;-4.222;2024-02-14T11:26:48;17.00;72.20
44427;DHT22;30133;47.866;-4.222;2024-02-14T11:29:20;17.10;72.40
44427;DHT22;30133;47.866;-4.222;2024-02-14T11:31:47;17.10;72.40
44427;DHT22;30133;47.866;-4.222;2024-02-14T11:34:16;17.10;72.30
44427;DHT22;30133;47.866;-4.222;2024-02-14T11:36:43;17.20;72.30
44427;DHT22;30133;47.866;-4.222;2024-02-14T11:39:10;17.10;72.20
44427;DHT22;30133;47.866;-4.222;2024-02-14T11:41:38;17.20;72.30
44427;DHT22;30133;47.866;-4.222;2024-02-14T11:44:07;17.10;72.30
44427;DHT22;30133;47.866;-4.222;2024-02-14T11:46:36;17.10;72.40
44427;DHT22;30133;47.866;-4.222;2024-02-14T11:49:03;17.00;72.40
44427;DHT22;30133;47.866;-4.222;2024-02-14T11:51:31;17.10;72.30
44427;DHT22;30133;47.866;-4.222;2024-02-14T11:53:58;17.20;72.30
44427;DHT22;30133;47.866;-4.222;2024-02-14T11:56:33;17.10;72.20
44427;DHT22;30133;47.866;-4.222;2024-02-14T11:59:03;17.20;72.10
44427;DHT22;30133;47.866;-4.222;2024-02-14T12:01:34;17.20;72.10
44427;DHT22;30133;47.866;-4.222;2024-02-14T12:04:01;17.20;72.00
44427;DHT22;30133;47.866;-4.222;2024-02-14T12:06:31;17.20;72.00
44427;DHT22;30133;47.866;-4.222;2024-02-14T12:09:01;17.20;71.90
44427;DHT22;30133;47.866;-4.222;2024-02-14T12:11:34;17.20;71.80
44427;DHT22;30133;47.866;-4.222;2024-02-14T12:14:06;17.20;71.80
44427;DHT22;30133;47.866;-4.222;2024-02-14T12:16:39;17.20;71.80
44427;DHT22;30133;47.866;-4.222;2024-02-14T12:19:11;17.20;71.70
44427;DHT22;30133;47.866;-4.222;2024-02-14T12:21:41;17.20;71.70
44427;DHT22;30133;47.866;-4.222;2024-02-14T12:24:12;17.20;71.70
44427;DHT22;30133;47.866;-4.222;2024-02-14T12:26:42;17.20;71.60
44427;DHT22;30133;47.866;-4.222;2024-02-14T12:29:10;17.20;71.60
44427;DHT22;30133;47.866;-4.222;2024-02-14T12:31:36;17.20;71.60
44427;DHT22;30133;47.866;-4.222;2024-02-14T12:34:03;17.30;71.60
44427;DHT22;30133;47.866;-4.222;2024-02-14T12:36:31;17.30;71.50
44427;DHT22;30133;47.866;-4.222;2024-02-14T12:38:59;17.20;71.50
44427;DHT22;30133;47.866;-4.222;2024-02-14T12:41:26;17.30;71.50
44427;DHT22;30133;47.866;-4.222;2024-02-14T12:43:53;17.20;71.40
44427;DHT22;30133;47.866;-4.222;2024-02-14T12:46:19;17.20;71.50
44427;DHT22;30133;47.866;-4.222;2024-02-14T12:48:45;17.20;71.50
44427;DHT22;30133;47.866;-4.222;2024-02-14T12:51:11;17.20;71.50
44427;DHT22;30133;47.866;-4.222;2024-02-14T12:53:37;17.30;71.50
44427;DHT22;30133;47.866;-4.222;2024-02-14T12:56:03;17.20;71.50
44427;DHT22;30133;47.866;-4.222;2024-02-14T12:58:31;17.30;71.50
44427;DHT22;30133;47.866;-4.222;2024-02-14T13:00:57;17.30;71.50
44427;DHT22;30133;47.866;-4.222;2024-02-14T13:03:24;17.20;71.50
44427;DHT22;30133;47.866;-4.222;2024-02-14T13:05:50;17.30;71.50
44427;DHT22;30133;47.866;-4.222;2024-02-14T13:08:19;17.20;71.50
44427;DHT22;30133;47.866;-4.222;2024-02-14T13:10:45;17.20;71.40
44427;DHT22;30133;47.866;-4.222;2024-02-14T13:13:11;17.20;71.50
44427;DHT22;30133;47.866;-4.222;2024-02-14T13:15:37;17.20;71.50
44427;DHT22;30133;47.866;-4.222;2024-02-14T13:18:04;17.20;71.50
44427;DHT22;30133;47.866;-4.222;2024-02-14T13:20:29;17.20;71.50
44427;DHT22;30133;47.866;-4.222;2024-02-14T13:22:56;17.20;71.50
44427;DHT22;30133;47.866;-4.222;2024-02-14T13:25:21;17.20;71.50
44427;DHT22;30133;47.866;-4.222;2024-02-14T13:27:47;17.30;71.50
44427;DHT22;30133;47.866;-4.222;2024-02-14T13:30:13;17.20;71.50
44427;DHT22;30133;47.866;-4.222;2024-02-14T13:32:39;17.20;71.50
44427;DHT22;30133;47.866;-4.222;2024-02-14T13:35:05;17.20;71.50
44427;DHT22;30133;47.866;-4.222;2024-02-14T13:37:32;17.20;71.50
44427;DHT22;30133;47.866;-4.222;2024-02-14T13:39:58;17.20;71.50
44427;DHT22;30133;47.866;-4.222;2024-02-14T13:42:24;17.20;71.50
44427;DHT22;30133;47.866;-4.222;2024-02-14T13:44:49;17.20;71.50
44427;DHT22;30133;47.866;-4.222;2024-02-14T13:47:18;17.20;71.50
44427;DHT22;30133;47.866;-4.222;2024-02-14T13:49:44;17.20;71.50
44427;DHT22;30133;47.866;-4.222;2024-02-14T13:52:10;17.20;71.50
44427;DHT22;30133;47.866;-4.222;2024-02-14T13:54:36;17.20;71.50
44427;DHT22;30133;47.866;-4.222;2024-02-14T13:57:02;17.20;71.50
44427;DHT22;30133;47.866;-4.222;2024-02-14T13:59:28;17.20;71.50
44427;DHT22;30133;47.866;-4.222;2024-02-14T14:01:55;17.20;71.50
44427;DHT22;30133;47.866;-4.222;2024-02-14T14:04:21;17.20;71.50
44427;DHT22;30133;47.866;-4.222;2024-02-14T14:06:47;17.20;71.50
44427;DHT22;30133;47.866;-4.222;2024-02-14T14:09:14;17.20;71.50
44427;DHT22;30133;47.866;-4.222;2024-02-14T14:11:39;17.20;71.50
44427;DHT22;30133;47.866;-4.222;2024-02-14T14:14:06;17.20;71.50
44427;DHT22;30133;47.866;-4.222;2024-02-14T14:16:33;17.20;71.50
44427;DHT22;30133;47.866;-4.222;2024-02-14T14:18:59;17.20;71.50
44427;DHT22;30133;47.866;-4.222;2024-02-14T14:21:26;17.20;71.50
44427;DHT22;30133;47.866;-4.222;2024-02-14T14:23:57;17.20;71.50
44427;DHT22;30133;47.866;-4.222;2024-02-14T14:26:23;17.20;71.50
44427;DHT22;30133;47.866;-4.222;2024-02-14T14:28:50;17.20;71.50
44427;DHT22;30133;47.866;-4.222;2024-02-14T14:31:16;17.20;71.50
44427;DHT22;30133;47.866;-4.222;2024-02-14T14:33:41;17.20;71.50
44427;DHT22;30133;47.866;-4.222;2024-02-14T14:36:08;17.20;71.50
44427;DHT22;30133;47.866;-4.222;2024-02-14T14:38:34;17.20;71.60
44427;DHT22;30133;47.866;-4.222;2024-02-14T14:41:00;17.20;71.50
44427;DHT22;30133;47.866;-4.222;2024-02-14T14:43:26;17.20;71.50
44427;DHT22;30133;47.866;-4.222;2024-02-14T14:45:53;17.20;71.60
44427;DHT22;30133;47.866;-4.222;2024-02-14T14:48:19;17.20;71.60
44427;DHT22;30133;47.866;-4.222;2024-02-14T14:50:45;17.20;71.50
44427;DHT22;30133;47.866;-4.222;2024-02-14T14:53:11;17.20;71.50
44427;DHT22;30133;47.866;-4.222;2024-02-14T14:55:51;17.20;71.50
44427;DHT22;30133;47.866;-4.222;2024-02-14T14:58:17;17.20;71.50
44427;DHT22;30133;47.866;-4.222;2024-02-14T15:00:44;17.20;71.50
44427;DHT22;30133;47.866;-4.222;2024-02-14T15:03:18;17.20;71.50
44427;DHT22;30133;47.866;-4.222;2024-02-14T15:05:56;17.20;71.60
44427;DHT22;30133;47.866;-4.222;2024-02-14T15:08:22;17.20;71.60
44427;DHT22;30133;47.866;-4.222;2024-02-14T15:10:53;17.20;71.60
44427;DHT22;30133;47.866;-4.222;2024-02-14T15:13:21;17.20;71.60
44427;DHT22;30133;47.866;-4.222;2024-02-14T15:15:47;17.20;71.60
44427;DHT22;30133;47.866;-4.222;2024-02-14T15:18:13;17.20;71.60
44427;DHT22;30133;47.866;-4.222;2024-02-14T15:20:39;17.20;71.60